Ana Sayfa
METAR-TAF:

METAR-TAF

Havaalanları :

San Antonio International Airport

San Antonio, Teksas, Amerika Birleşik Devletleri

Enlem: 29-31-58N, Boylam: 098-27-49W, yükseklik: 246 m

Güncel hava durumu gözlemi

Rapor saat 00:51 UTC de 58 dakika önce yapıldı.
Rüzgar doğu/kuzeydoğudan 5 kt
Sıcaklık 11°C
Nem 35%
Basınç 1031 hPa
Görüş mesafesi: 16.1 km
10000 ft yükseklikte az bulutlu

METAR: KSAT 200051Z 06005KT 10SM FEW100 11/M04 A3045 RMK AO2 SLP303 T01111044

Saat: 19:49 (01:49 UTC)

Tahmin

Rapor saat 23:20 UTC de 2 saat ve 29 dakika önce yapıldı.
Ayın 20'si saat 00 UTC'den ayın 21'si saat 06 UTC'ye kadar geçerli Tahmin
Rüzgar doğu/kuzeydoğudan 7 kt
Görüş mesafesi: 10 km
8000 ft yükseklikte az bulutlu
25000 ft yükseklikte az bulutlu

TAF: KSAT 192320Z 2000/2106 06007KT P6SM FEW080 FEW250

4.000'den fazla havaalanı için hava durumu gözlemleri ve tahminleri (METAR ve TAF raporları).

Kullanılabilir istasyonlar harita üzerinde sarı ve kırmızı noktalarla gösterilir.

İstasyonun adını görmek için fareyi noktanın üzerinde gezdirin.

Sonrasında hava gözlem ve tahminlerini görmek için tıklayın.

Haritayı değiştirmek için: yaklaştırmak için siyah artı işaretli yeşil düğmeye ve uzaklaştırmak için de eksi işaretli düğmeye hızla tıklayın; bitişik haritalar için yeşil okları kullanın.


METAR-TAF: